Time;durP1;ratioP1;P1;durP2;ratioP2;P2;SDS_P1;SDS_P2;PMS_P1;PMS_P2;Temp;Humidity;BMP_temperature;BMP_pressure;BME280_temperature;BME280_humidity;BME280_pressure;Samples;Min_cycle;Max_cycle;Signal;HPM_P1;HPM_P2
2021/09/26 00:00:35;;;;;;;29.02;20.65;;;;;;;;;;5025824;28;20209;-72
2021/09/26 00:03:00;;;;;;;31.20;19.08;;;;;;;;;;5024926;28;20185;-72
2021/09/26 00:05:26;;;;;;;32.13;21.90;;;;;;;;;;5036061;28;20613;-72
2021/09/26 00:07:51;;;;;;;31.95;21.98;;;;;;;;;;5021875;28;20202;-72
2021/09/26 00:10:16;;;;;;;36.65;23.33;;;;;;;;;;5034015;28;20181;-72
2021/09/26 00:12:43;;;;;;;49.30;29.90;;;;;;;;;;5030731;28;20236;-72
2021/09/26 00:15:12;;;;;;;48.40;28.70;;;;;;;;;;5023458;28;20220;-72
2021/09/26 00:17:38;;;;;;;47.50;28.10;;;;;;;;;;5030032;28;20207;-72
2021/09/26 00:20:04;;;;;;;48.25;30.98;;;;;;;;;;5024855;28;20228;-72
2021/09/26 00:22:30;;;;;;;46.15;28.63;;;;;;;;;;5029657;28;20189;-72
2021/09/26 00:24:55;;;;;;;50.28;29.58;;;;;;;;;;5021572;28;20198;-72
2021/09/26 00:27:20;;;;;;;52.33;31.27;;;;;;;;;;5030667;28;20198;-72
2021/09/26 00:29:46;;;;;;;50.08;30.20;;;;;;;;;;5025152;28;20656;-72
2021/09/26 00:32:11;;;;;;;50.92;29.95;;;;;;;;;;5030479;28;20196;-73
2021/09/26 00:34:36;;;;;;;48.47;28.85;;;;;;;;;;5024197;28;20665;-71
2021/09/26 00:37:03;;;;;;;55.30;31.23;;;;;;;;;;5031845;28;20632;-71
2021/09/26 00:39:28;;;;;;;51.10;30.50;;;;;;;;;;5021643;28;20202;-71
2021/09/26 00:41:54;;;;;;;47.45;28.70;;;;;;;;;;5032240;28;20192;-71
2021/09/26 00:44:19;;;;;;;47.28;28.15;;;;;;;;;;5031214;28;20209;-71
2021/09/26 00:46:45;;;;;;;45.00;28.27;;;;;;;;;;5021501;28;20285;-71
2021/09/26 00:49:11;;;;;;;44.80;27.67;;;;;;;;;;5029937;28;20316;-72
2021/09/26 00:51:36;;;;;;;41.13;25.83;;;;;;;;;;5023864;28;20244;-72
2021/09/26 00:54:03;;;;;;;41.78;25.45;;;;;;;;;;5029704;28;20184;-72
2021/09/26 00:56:30;;;;;;;33.00;23.13;;;;;;;;;;5023390;28;20200;-72
2021/09/26 00:58:57;;;;;;;42.90;26.27;;;;;;;;;;5029684;28;20217;-72
2021/09/26 01:01:22;;;;;;;37.92;23.00;;;;;;;;;;5019970;28;20557;-72
2021/09/26 01:03:47;;;;;;;42.30;25.88;;;;;;;;;;5028218;28;20296;-72
2021/09/26 01:06:15;;;;;;;39.45;25.52;;;;;;;;;;5023094;28;20234;-72
2021/09/26 01:08:56;;;;;;;50.67;26.80;;;;;;;;;;5029567;28;20193;-72
2021/09/26 01:11:31;;;;;;;44.90;25.67;;;;;;;;;;5019652;28;20219;-72
2021/09/26 01:14:13;;;;;;;47.80;27.77;;;;;;;;;;5027301;28;20223;-72
2021/09/26 01:16:57;;;;;;;48.25;28.80;;;;;;;;;;5021850;28;20747;-72
2021/09/26 01:19:34;;;;;;;50.80;31.08;;;;;;;;;;5027792;28;20237;-72
2021/09/26 01:22:03;;;;;;;49.95;29.40;;;;;;;;;;5022990;28;20195;-72
2021/09/26 01:24:59;;;;;;;48.35;28.35;;;;;;;;;;5028953;28;20310;-73
2021/09/26 01:27:24;;;;;;;47.90;28.38;;;;;;;;;;5020969;28;20239;-72
2021/09/26 01:30:18;;;;;;;50.78;29.42;;;;;;;;;;5029685;28;20288;-72
2021/09/26 01:33:03;;;;;;;53.45;31.23;;;;;;;;;;5022630;28;20228;-73
2021/09/26 01:35:30;;;;;;;57.17;30.30;;;;;;;;;;5026533;28;20196;-71
2021/09/26 01:38:08;;;;;;;56.83;33.55;;;;;;;;;;5020474;28;20189;-72
2021/09/26 01:40:44;;;;;;;56.50;32.00;;;;;;;;;;5028488;28;20209;-72
2021/09/26 01:43:14;;;;;;;57.20;32.72;;;;;;;;;;5019898;28;20181;-73
2021/09/26 01:45:45;;;;;;;60.97;33.38;;;;;;;;;;5028158;28;20189;-72
2021/09/26 01:48:15;;;;;;;54.13;29.75;;;;;;;;;;5019964;28;20207;-72
2021/09/26 01:50:41;;;;;;;49.00;30.20;;;;;;;;;;5026432;28;20217;-72
2021/09/26 01:53:09;;;;;;;51.92;29.83;;;;;;;;;;5026641;28;20194;-72
2021/09/26 01:55:35;;;;;;;51.75;30.70;;;;;;;;;;5019961;28;20221;-73
2021/09/26 01:58:01;;;;;;;54.22;31.42;;;;;;;;;;5028786;28;20260;-73
2021/09/26 02:00:28;;;;;;;54.15;30.40;;;;;;;;;;5018738;28;20516;-73
2021/09/26 02:02:54;;;;;;;51.80;31.52;;;;;;;;;;5028201;28;20213;-72
2021/09/26 02:05:21;;;;;;;54.85;29.58;;;;;;;;;;5015827;28;20324;-72
2021/09/26 02:07:49;;;;;;;55.55;31.50;;;;;;;;;;5026642;28;20182;-72
2021/09/26 02:10:20;;;;;;;50.63;29.55;;;;;;;;;;5016529;28;21345;-72
2021/09/26 02:12:46;;;;;;;52.22;31.08;;;;;;;;;;5029845;28;20187;-73
2021/09/26 02:15:15;;;;;;;47.67;28.95;;;;;;;;;;5015632;28;20196;-72
2021/09/26 02:17:44;;;;;;;51.72;30.58;;;;;;;;;;5031720;28;20181;-72
2021/09/26 02:20:10;;;;;;;53.10;27.90;;;;;;;;;;5021449;28;20267;-72
2021/09/26 02:22:37;;;;;;;51.60;29.40;;;;;;;;;;5031023;28;20547;-72
2021/09/26 02:25:07;;;;;;;52.42;31.15;;;;;;;;;;5019842;28;20197;-72
2021/09/26 02:27:34;;;;;;;43.70;26.77;;;;;;;;;;5030026;28;20284;-72
2021/09/26 02:29:59;;;;;;;56.95;29.90;;;;;;;;;;5027214;28;20189;-72
2021/09/26 02:32:25;;;;;;;50.72;29.80;;;;;;;;;;5017983;28;20271;-72
2021/09/26 02:34:51;;;;;;;48.28;28.63;;;;;;;;;;5023962;28;20217;-72
2021/09/26 02:37:16;;;;;;;55.97;31.73;;;;;;;;;;5020037;28;20190;-72
2021/09/26 02:39:42;;;;;;;52.45;29.45;;;;;;;;;;5025645;28;20209;-72
2021/09/26 02:42:20;;;;;;;51.97;29.88;;;;;;;;;;5017154;28;20205;-72
2021/09/26 02:45:19;;;;;;;45.35;28.25;;;;;;;;;;5026005;28;20197;-72
2021/09/26 02:47:55;;;;;;;45.42;26.88;;;;;;;;;;5018799;28;20843;-72
2021/09/26 02:50:20;;;;;;;42.45;26.50;;;;;;;;;;5026785;28;20192;-72
2021/09/26 02:52:47;;;;;;;46.33;28.33;;;;;;;;;;5019221;28;20193;-72
2021/09/26 02:55:14;;;;;;;51.42;30.65;;;;;;;;;;5023471;28;20178;-73
2021/09/26 02:57:40;;;;;;;52.92;30.38;;;;;;;;;;5019329;28;20213;-73
2021/09/26 03:00:08;;;;;;;50.83;30.13;;;;;;;;;;5025413;28;20250;-73
2021/09/26 03:02:34;;;;;;;61.58;31.48;;;;;;;;;;5015516;28;20205;-73
2021/09/26 03:04:59;;;;;;;58.58;30.98;;;;;;;;;;5025954;28;20192;-73
2021/09/26 03:07:24;;;;;;;53.67;31.08;;;;;;;;;;5017063;28;20205;-73
2021/09/26 03:09:50;;;;;;;48.92;28.52;;;;;;;;;;5026653;28;20212;-73
2021/09/26 03:12:20;;;;;;;51.22;29.58;;;;;;;;;;5028318;28;20281;-73
2021/09/26 03:14:48;;;;;;;58.67;32.03;;;;;;;;;;5026640;28;20189;-73
2021/09/26 03:17:14;;;;;;;50.75;30.35;;;;;;;;;;5022006;28;20600;-73
2021/09/26 03:19:40;;;;;;;48.85;28.65;;;;;;;;;;5021158;28;20297;-73
2021/09/26 03:22:07;;;;;;;56.95;30.38;;;;;;;;;;5024207;28;20289;-73
2021/09/26 03:24:32;;;;;;;49.15;29.40;;;;;;;;;;5020981;28;20193;-73
2021/09/26 03:27:02;;;;;;;52.70;28.50;;;;;;;;;;5028897;28;20258;-72
2021/09/26 03:29:27;;;;;;;56.55;26.70;;;;;;;;;;5023144;28;20193;-72
2021/09/26 03:31:53;;;;;;;47.92;26.35;;;;;;;;;;5031525;28;20534;-72
2021/09/26 03:34:18;;;;;;;38.00;22.88;;;;;;;;;;5023384;28;21164;-72
2021/09/26 03:36:43;;;;;;;45.42;27.17;;;;;;;;;;5030421;28;20189;-72
2021/09/26 03:39:09;;;;;;;44.60;25.88;;;;;;;;;;5023794;28;20727;-73
2021/09/26 03:41:34;;;;;;;46.08;25.50;;;;;;;;;;5030718;28;20251;-73
2021/09/26 03:43:59;;;;;;;51.47;28.17;;;;;;;;;;5029134;28;20197;-73
2021/09/26 03:46:25;;;;;;;48.10;27.88;;;;;;;;;;5023463;28;20675;-73
2021/09/26 03:48:51;;;;;;;54.03;27.75;;;;;;;;;;5029443;28;20498;-73
2021/09/26 03:51:16;;;;;;;57.13;27.40;;;;;;;;;;5023186;28;20272;-72
2021/09/26 03:53:41;;;;;;;42.33;26.88;;;;;;;;;;5026041;28;20204;-73
2021/09/26 03:56:07;;;;;;;56.50;29.63;;;;;;;;;;5021351;28;20205;-72
2021/09/26 03:58:32;;;;;;;60.63;31.50;;;;;;;;;;5029914;28;20221;-72
2021/09/26 04:00:58;;;;;;;54.08;29.70;;;;;;;;;;5021138;28;20202;-74
2021/09/26 04:03:23;;;;;;;53.35;30.60;;;;;;;;;;5024819;28;20182;-73
2021/09/26 04:05:48;;;;;;;60.63;32.33;;;;;;;;;;5019653;28;20217;-73
2021/09/26 04:08:15;;;;;;;48.88;29.48;;;;;;;;;;5028458;28;20201;-73
2021/09/26 04:10:40;;;;;;;53.03;29.40;;;;;;;;;;5023723;28;21904;-74
2021/09/26 04:13:05;;;;;;;59.65;31.23;;;;;;;;;;5028232;28;20754;-72
2021/09/26 04:15:31;;;;;;;54.35;30.05;;;;;;;;;;5025894;28;20197;-73
2021/09/26 04:17:56;;;;;;;47.38;27.55;;;;;;;;;;5020623;28;20565;-73
2021/09/26 04:20:21;;;;;;;65.45;31.73;;;;;;;;;;5028153;28;20673;-73
2021/09/26 04:22:47;;;;;;;59.05;30.20;;;;;;;;;;5018413;28;20198;-74
2021/09/26 04:25:12;;;;;;;58.97;29.70;;;;;;;;;;5028753;28;20177;-73
2021/09/26 04:27:38;;;;;;;57.05;30.55;;;;;;;;;;5019676;28;20193;-73
2021/09/26 04:30:04;;;;;;;64.10;31.05;;;;;;;;;;5032482;28;20237;-73
2021/09/26 04:32:29;;;;;;;54.33;30.70;;;;;;;;;;5019559;28;20488;-73
2021/09/26 04:34:55;;;;;;;48.60;29.40;;;;;;;;;;5028134;28;20235;-73
2021/09/26 04:37:20;;;;;;;50.97;29.55;;;;;;;;;;5019902;28;20209;-73
2021/09/26 04:39:46;;;;;;;48.97;28.15;;;;;;;;;;5028789;28;20206;-73
2021/09/26 04:42:11;;;;;;;46.47;26.75;;;;;;;;;;5021974;28;20196;-73
2021/09/26 04:44:36;;;;;;;45.95;26.20;;;;;;;;;;5022537;28;20197;-73
2021/09/26 04:47:02;;;;;;;47.83;27.67;;;;;;;;;;5027221;28;20197;-74
2021/09/26 04:49:28;;;;;;;46.40;26.90;;;;;;;;;;5019478;28;20185;-73
2021/09/26 04:51:58;;;;;;;53.10;28.60;;;;;;;;;;5025685;28;20304;-74
2021/09/26 04:54:23;;;;;;;54.58;28.85;;;;;;;;;;4319484;28;10000897;-73
2021/09/26 04:56:48;;;;;;;51.25;29.42;;;;;;;;;;5021869;28;20234;-73
2021/09/26 04:59:15;;;;;;;55.33;29.63;;;;;;;;;;5015697;28;20198;-73
2021/09/26 05:01:40;;;;;;;51.25;28.02;;;;;;;;;;5023849;28;20689;-73
2021/09/26 05:04:06;;;;;;;53.55;29.33;;;;;;;;;;5017194;28;20198;-73
2021/09/26 05:06:31;;;;;;;59.75;30.42;;;;;;;;;;5024721;28;20315;-74
2021/09/26 05:08:56;;;;;;;50.40;28.05;;;;;;;;;;5014163;28;20212;-73
2021/09/26 05:11:22;;;;;;;53.30;28.27;;;;;;;;;;5024251;28;20197;-73
2021/09/26 05:13:47;;;;;;;56.55;29.48;;;;;;;;;;5018334;28;20181;-74
2021/09/26 05:16:12;;;;;;;51.15;28.17;;;;;;;;;;5020299;28;20193;-73
2021/09/26 05:18:38;;;;;;;53.35;29.80;;;;;;;;;;5025153;28;20186;-73
2021/09/26 05:21:04;;;;;;;43.67;24.50;;;;;;;;;;5019909;28;20287;-74
2021/09/26 05:23:30;;;;;;;50.30;27.70;;;;;;;;;;5028053;28;20739;-73
2021/09/26 05:25:55;;;;;;;50.95;27.02;;;;;;;;;;5021710;28;20198;-73
2021/09/26 05:28:20;;;;;;;47.42;27.55;;;;;;;;;;5026794;28;20218;-73
2021/09/26 05:30:47;;;;;;;50.00;27.33;;;;;;;;;;5019043;28;20210;-73
2021/09/26 05:33:13;;;;;;;46.35;26.48;;;;;;;;;;5025910;28;20190;-74
2021/09/26 05:35:39;;;;;;;53.97;28.70;;;;;;;;;;5019423;28;20551;-73
2021/09/26 05:38:04;;;;;;;56.28;27.08;;;;;;;;;;5027312;28;20636;-73
2021/09/26 05:40:29;;;;;;;51.55;24.25;;;;;;;;;;5021082;28;20207;-73
2021/09/26 05:42:55;;;;;;;44.72;23.77;;;;;;;;;;5024422;28;20247;-74
2021/09/26 05:45:20;;;;;;;43.42;24.27;;;;;;;;;;5020139;28;20210;-73
2021/09/26 05:47:46;;;;;;;46.03;26.92;;;;;;;;;;5016837;28;20740;-74
2021/09/26 05:50:11;;;;;;;48.20;28.20;;;;;;;;;;5026020;28;20253;-74
2021/09/26 05:52:37;;;;;;;56.72;28.52;;;;;;;;;;5018860;28;20193;-74
2021/09/26 05:55:03;;;;;;;48.38;27.67;;;;;;;;;;5026220;28;20626;-73
2021/09/26 05:57:28;;;;;;;60.55;31.40;;;;;;;;;;5018386;28;20688;-74
2021/09/26 05:59:54;;;;;;;55.33;28.70;;;;;;;;;;5025252;28;20255;-74
2021/09/26 06:02:27;;;;;;;56.80;29.45;;;;;;;;;;5015829;28;20276;-74
2021/09/26 06:04:52;;;;;;;44.72;25.02;;;;;;;;;;5028270;28;20345;-74
2021/09/26 06:07:18;;;;;;;59.15;31.25;;;;;;;;;;5017606;28;20733;-74
2021/09/26 06:09:44;;;;;;;60.97;30.63;;;;;;;;;;5025305;28;20193;-74
2021/09/26 06:12:11;;;;;;;43.92;25.65;;;;;;;;;;5017558;28;20220;-74
2021/09/26 06:14:37;;;;;;;54.05;29.38;;;;;;;;;;5023901;28;20212;-74
2021/09/26 06:17:03;;;;;;;55.40;28.98;;;;;;;;;;5016316;28;20975;-74
2021/09/26 06:19:28;;;;;;;47.80;27.50;;;;;;;;;;5013958;28;20575;-74
2021/09/26 06:21:53;;;;;;;38.65;24.65;;;;;;;;;;5023848;28;20540;-74
2021/09/26 06:24:19;;;;;;;47.60;26.17;;;;;;;;;;5013623;28;20579;-74
2021/09/26 06:26:44;;;;;;;47.65;26.77;;;;;;;;;;5024742;28;20197;-74
2021/09/26 06:29:10;;;;;;;42.30;25.55;;;;;;;;;;5009193;28;20330;-74
2021/09/26 06:31:35;;;;;;;41.95;24.80;;;;;;;;;;5021101;28;20409;-74
2021/09/26 06:34:01;;;;;;;43.03;25.55;;;;;;;;;;5014629;28;20298;-74
2021/09/26 06:36:26;;;;;;;44.33;23.33;;;;;;;;;;5023970;28;20747;-73
2021/09/26 06:38:52;;;;;;;40.03;23.40;;;;;;;;;;5015857;28;20205;-73
2021/09/26 06:41:18;;;;;;;39.95;24.90;;;;;;;;;;5025015;28;20206;-74
2021/09/26 06:43:44;;;;;;;34.28;23.75;;;;;;;;;;5014444;28;20254;-74
2021/09/26 06:46:09;;;;;;;32.80;22.45;;;;;;;;;;5024762;28;20190;-74
2021/09/26 06:48:35;;;;;;;35.03;22.55;;;;;;;;;;5025429;28;20212;-74
2021/09/26 06:51:00;;;;;;;35.60;22.83;;;;;;;;;;5017429;28;20213;-73
2021/09/26 06:53:25;;;;;;;34.30;21.00;;;;;;;;;;5020923;28;20216;-75
2021/09/26 06:55:51;;;;;;;35.03;22.33;;;;;;;;;;5015795;28;20331;-75
2021/09/26 06:58:16;;;;;;;33.75;21.42;;;;;;;;;;5022497;28;20217;-74
2021/09/26 07:00:41;;;;;;;32.90;21.08;;;;;;;;;;5015274;28;20217;-74
2021/09/26 07:03:07;;;;;;;29.10;19.70;;;;;;;;;;5024247;28;20644;-74
2021/09/26 07:05:33;;;;;;;34.45;21.48;;;;;;;;;;5017345;28;20288;-74
2021/09/26 07:07:58;;;;;;;37.03;22.05;;;;;;;;;;5023005;28;20211;-74
2021/09/26 07:10:23;;;;;;;32.17;22.48;;;;;;;;;;5018746;28;20205;-74
2021/09/26 07:12:49;;;;;;;32.47;21.67;;;;;;;;;;5024200;28;20217;-73
2021/09/26 07:15:14;;;;;;;34.92;22.30;;;;;;;;;;5023172;28;20263;-73
2021/09/26 07:17:39;;;;;;;30.42;20.60;;;;;;;;;;5014172;28;20232;-74
2021/09/26 07:20:06;;;;;;;33.60;20.60;;;;;;;;;;5024462;28;20228;-74
2021/09/26 07:22:32;;;;;;;29.13;20.05;;;;;;;;;;5015540;28;20265;-73
2021/09/26 07:24:57;;;;;;;30.20;20.83;;;;;;;;;;5025283;28;20609;-74
2021/09/26 07:27:24;;;;;;;29.45;21.50;;;;;;;;;;5015953;28;20852;-73
2021/09/26 07:29:51;;;;;;;31.45;21.42;;;;;;;;;;5026180;28;20221;-73
2021/09/26 07:32:16;;;;;;;29.20;20.23;;;;;;;;;;5013731;28;20257;-74
2021/09/26 07:34:43;;;;;;;29.30;20.95;;;;;;;;;;5025542;28;20185;-73
2021/09/26 07:37:08;;;;;;;29.27;20.55;;;;;;;;;;5015335;28;20194;-73
2021/09/26 07:39:35;;;;;;;31.05;21.60;;;;;;;;;;5023238;28;20224;-73
2021/09/26 07:42:01;;;;;;;29.88;20.52;;;;;;;;;;5017467;28;20624;-74
2021/09/26 07:44:26;;;;;;;29.83;20.85;;;;;;;;;;5025624;28;20241;-73
2021/09/26 07:46:52;;;;;;;29.23;20.73;;;;;;;;;;5024130;28;20238;-73
2021/09/26 07:49:17;;;;;;;28.15;20.00;;;;;;;;;;5016486;28;20209;-73
2021/09/26 07:51:43;;;;;;;29.00;19.00;;;;;;;;;;5021076;28;20276;-73
2021/09/26 07:54:08;;;;;;;26.83;17.23;;;;;;;;;;5007265;28;20298;-72
2021/09/26 07:56:34;;;;;;;25.80;17.33;;;;;;;;;;5019153;28;20239;-73
2021/09/26 07:58:59;;;;;;;29.15;17.48;;;;;;;;;;5013653;28;20565;-73
2021/09/26 08:01:25;;;;;;;24.73;17.90;;;;;;;;;;5023186;28;20212;-73
2021/09/26 08:03:50;;;;;;;25.90;18.33;;;;;;;;;;5011772;28;20186;-73
2021/09/26 08:06:18;;;;;;;24.98;18.02;;;;;;;;;;5022141;28;20218;-73
2021/09/26 08:08:43;;;;;;;23.88;17.02;;;;;;;;;;5014849;28;20263;-73
2021/09/26 08:11:09;;;;;;;25.67;17.65;;;;;;;;;;5022861;28;20185;-73
2021/09/26 08:13:34;;;;;;;23.80;16.88;;;;;;;;;;5016298;28;20610;-72
2021/09/26 08:16:00;;;;;;;20.80;15.90;;;;;;;;;;5025418;28;20676;-72
2021/09/26 08:18:25;;;;;;;19.63;14.82;;;;;;;;;;5024945;28;20198;-72
2021/09/26 08:20:51;;;;;;;21.23;14.55;;;;;;;;;;5012672;28;20650;-72
2021/09/26 08:23:16;;;;;;;19.70;15.00;;;;;;;;;;5025990;28;20275;-71
2021/09/26 08:25:41;;;;;;;18.30;14.70;;;;;;;;;;5018898;28;20222;-72
2021/09/26 08:28:07;;;;;;;23.92;16.13;;;;;;;;;;5021119;28;20322;-72
2021/09/26 08:30:32;;;;;;;23.33;16.48;;;;;;;;;;5016308;28;20274;-72
2021/09/26 08:32:58;;;;;;;19.65;15.23;;;;;;;;;;5020970;28;20275;-73
2021/09/26 08:35:23;;;;;;;21.98;14.57;;;;;;;;;;5015237;28;21419;-73
2021/09/26 08:37:50;;;;;;;19.73;14.45;;;;;;;;;;5020696;28;20201;-73
2021/09/26 08:40:15;;;;;;;18.42;14.82;;;;;;;;;;5014016;28;20213;-72
2021/09/26 08:42:41;;;;;;;20.75;15.40;;;;;;;;;;5019596;28;20220;-72
2021/09/26 08:45:10;;;;;;;22.50;15.13;;;;;;;;;;5022052;28;20230;-72
2021/09/26 08:47:39;;;;;;;17.67;14.55;;;;;;;;;;5017713;28;20193;-73
2021/09/26 08:50:06;;;;;;;20.60;14.60;;;;;;;;;;5019697;28;20225;-72
2021/09/26 08:52:32;;;;;;;20.10;14.25;;;;;;;;;;5015329;28;20201;-72
2021/09/26 08:54:57;;;;;;;17.73;13.70;;;;;;;;;;5023683;28;20709;-72
2021/09/26 08:57:23;;;;;;;17.88;14.50;;;;;;;;;;5013974;28;20252;-72
2021/09/26 08:59:48;;;;;;;18.58;13.57;;;;;;;;;;5022578;28;20622;-72
2021/09/26 09:02:14;;;;;;;19.00;13.20;;;;;;;;;;5015662;28;20741;-72
2021/09/26 09:04:41;;;;;;;21.50;13.82;;;;;;;;;;5022470;28;20292;-72
2021/09/26 09:07:09;;;;;;;18.92;12.57;;;;;;;;;;5013510;28;20570;-71
2021/09/26 09:09:53;;;;;;;18.45;13.52;;;;;;;;;;5021157;28;20545;-72
2021/09/26 09:12:34;;;;;;;18.27;13.35;;;;;;;;;;5012353;28;20191;-71
2021/09/26 09:15:08;;;;;;;19.15;14.07;;;;;;;;;;5022518;28;20252;-72
2021/09/26 09:17:37;;;;;;;18.67;13.35;;;;;;;;;;5018088;28;20225;-72
2021/09/26 09:20:17;;;;;;;18.17;12.40;;;;;;;;;;5019315;28;20208;-72
2021/09/26 09:22:46;;;;;;;20.63;12.63;;;;;;;;;;5012800;28;20576;-71
2021/09/26 09:25:33;;;;;;;19.02;13.68;;;;;;;;;;5025969;28;20197;-71
2021/09/26 09:28:00;;;;;;;17.70;13.35;;;;;;;;;;5017126;28;20276;-71
2021/09/26 09:30:34;;;;;;;17.25;12.98;;;;;;;;;;5021015;28;20178;-71
2021/09/26 09:33:00;;;;;;;17.92;12.35;;;;;;;;;;5016767;28;20203;-71
2021/09/26 09:35:29;;;;;;;17.63;13.02;;;;;;;;;;5026683;28;20186;-71
2021/09/26 09:37:55;;;;;;;15.65;13.30;;;;;;;;;;5020596;28;20327;-72
2021/09/26 09:40:21;;;;;;;15.38;12.80;;;;;;;;;;5014354;28;20213;-71
2021/09/26 09:42:48;;;;;;;17.60;12.88;;;;;;;;;;5023838;28;20193;-71
2021/09/26 09:45:20;;;;;;;17.45;13.10;;;;;;;;;;5012741;28;20993;-71
2021/09/26 09:48:04;;;;;;;14.25;12.25;;;;;;;;;;5019979;28;20193;-72
2021/09/26 09:50:40;;;;;;;16.65;13.43;;;;;;;;;;5014521;28;20189;-71
2021/09/26 09:53:07;;;;;;;16.63;11.73;;;;;;;;;;5020559;28;20190;-71
2021/09/26 09:55:36;;;;;;;17.45;12.88;;;;;;;;;;5014055;28;20211;-71
2021/09/26 09:58:17;;;;;;;17.58;12.90;;;;;;;;;;5019015;28;20217;-72
2021/09/26 10:00:55;;;;;;;19.15;12.30;;;;;;;;;;5011920;28;20656;-72
2021/09/26 10:03:35;;;;;;;19.95;13.68;;;;;;;;;;5021964;28;20198;-71
2021/09/26 10:06:03;;;;;;;17.25;13.82;;;;;;;;;;5013740;28;20244;-71
2021/09/26 10:08:34;;;;;;;16.00;12.05;;;;;;;;;;5017203;28;20222;-71
2021/09/26 10:11:07;;;;;;;15.45;13.15;;;;;;;;;;5011976;28;20628;-71
2021/09/26 10:13:36;;;;;;;16.80;12.77;;;;;;;;;;5021077;28;20307;-72
2021/09/26 10:16:06;;;;;;;14.48;12.73;;;;;;;;;;5015215;28;20782;-71
2021/09/26 10:18:32;;;;;;;18.02;12.55;;;;;;;;;;5025021;28;20263;-71
2021/09/26 10:20:59;;;;;;;17.88;12.80;;;;;;;;;;5009660;28;20210;-70
2021/09/26 10:23:25;;;;;;;16.90;12.20;;;;;;;;;;5025136;28;20208;-71
2021/09/26 10:25:52;;;;;;;16.23;11.90;;;;;;;;;;5014172;28;20190;-71
2021/09/26 10:28:18;;;;;;;14.88;11.27;;;;;;;;;;5022077;28;20251;-71
2021/09/26 10:30:44;;;;;;;14.20;10.77;;;;;;;;;;5024725;28;20181;-71
2021/09/26 10:33:12;;;;;;;14.52;11.18;;;;;;;;;;5013356;28;20610;-71
2021/09/26 10:35:38;;;;;;;12.98;11.43;;;;;;;;;;5023217;28;20225;-71
2021/09/26 10:38:09;;;;;;;17.10;12.25;;;;;;;;;;5012240;28;20669;-71
2021/09/26 10:40:37;;;;;;;14.60;11.80;;;;;;;;;;5022339;28;20228;-72
2021/09/26 10:43:20;;;;;;;14.70;12.45;;;;;;;;;;5012219;28;20193;-70
2021/09/26 10:45:46;;;;;;;18.95;12.07;;;;;;;;;;5022222;28;20192;-71
2021/09/26 10:48:11;;;;;;;14.80;11.50;;;;;;;;;;5015431;28;20197;-71
2021/09/26 10:50:39;;;;;;;14.75;12.30;;;;;;;;;;5021096;28;20280;-71
2021/09/26 10:53:13;;;;;;;15.35;11.95;;;;;;;;;;5012916;28;20303;-71
2021/09/26 10:55:42;;;;;;;17.65;12.30;;;;;;;;;;5023161;28;20186;-72
2021/09/26 10:58:09;;;;;;;15.30;11.45;;;;;;;;;;5017146;28;20217;-72
2021/09/26 11:00:40;;;;;;;14.73;11.25;;;;;;;;;;5020810;28;20227;-71
2021/09/26 11:03:07;;;;;;;16.95;12.35;;;;;;;;;;5014377;28;20193;-72
2021/09/26 11:05:52;;;;;;;16.15;11.55;;;;;;;;;;5022877;28;20283;-71
2021/09/26 11:08:23;;;;;;;12.00;10.60;;;;;;;;;;5016613;28;20190;-71
2021/09/26 11:11:00;;;;;;;13.18;11.43;;;;;;;;;;4328724;28;10022501;-71
2021/09/26 11:13:34;;;;;;;17.92;12.05;;;;;;;;;;5007873;28;20186;-72
2021/09/26 11:16:16;;;;;;;12.93;11.52;;;;;;;;;;5017971;28;20215;-74
2021/09/26 11:18:49;;;;;;;13.38;11.98;;;;;;;;;;5009400;28;20201;-71
2021/09/26 11:21:40;;;;;;;18.60;12.40;;;;;;;;;;5024678;28;20213;-71
2021/09/26 11:24:24;;;;;;;14.65;11.45;;;;;;;;;;5012302;28;20748;-71
2021/09/26 11:27:20;;;;;;;13.02;10.95;;;;;;;;;;5025237;28;20198;-71
2021/09/26 11:29:48;;;;;;;13.57;10.60;;;;;;;;;;5014976;28;20196;-71
2021/09/26 11:32:16;;;;;;;14.02;11.20;;;;;;;;;;5022169;28;20353;-71
2021/09/26 11:34:48;;;;;;;15.93;11.73;;;;;;;;;;5015501;28;20613;-71
2021/09/26 11:37:14;;;;;;;13.68;11.48;;;;;;;;;;5026788;28;20198;-71
2021/09/26 11:39:49;;;;;;;13.07;9.95;;;;;;;;;;5017529;28;21058;-71
2021/09/26 11:42:28;;;;;;;14.57;11.82;;;;;;;;;;5021411;28;20197;-73
2021/09/26 11:44:55;;;;;;;13.65;11.30;;;;;;;;;;5021116;28;20664;-71
2021/09/26 11:47:21;;;;;;;15.52;10.93;;;;;;;;;;5025830;28;20549;-72
2021/09/26 11:49:47;;;;;;;15.73;11.98;;;;;;;;;;5025484;28;20743;-73
2021/09/26 11:52:12;;;;;;;16.33;12.13;;;;;;;;;;5021005;28;20447;-72
2021/09/26 11:54:37;;;;;;;14.45;11.38;;;;;;;;;;5025372;28;20646;-73
2021/09/26 11:57:03;;;;;;;14.68;11.57;;;;;;;;;;5017633;28;20596;-71
2021/09/26 11:59:40;;;;;;;14.65;10.45;;;;;;;;;;5027740;28;20264;-72
2021/09/26 12:02:14;;;;;;;11.90;10.75;;;;;;;;;;5014152;28;20189;-71
2021/09/26 12:04:40;;;;;;;12.60;11.30;;;;;;;;;;5025867;28;20209;-72
2021/09/26 12:07:07;;;;;;;14.73;11.68;;;;;;;;;;5018027;28;20282;-70
2021/09/26 12:09:38;;;;;;;12.52;10.55;;;;;;;;;;5024252;28;20909;-71
2021/09/26 12:12:10;;;;;;;13.57;10.85;;;;;;;;;;5018986;28;20737;-71
2021/09/26 12:14:36;;;;;;;12.10;9.90;;;;;;;;;;5027102;28;20252;-71
2021/09/26 12:17:04;;;;;;;11.68;9.82;;;;;;;;;;5017222;28;20214;-71
2021/09/26 12:19:31;;;;;;;12.25;10.13;;;;;;;;;;5032174;28;20319;-71
2021/09/26 12:22:06;;;;;;;15.52;11.32;;;;;;;;;;5019329;28;20190;-71
2021/09/26 12:24:53;;;;;;;13.82;11.57;;;;;;;;;;5023727;28;20200;-71
2021/09/26 12:27:30;;;;;;;13.15;11.65;;;;;;;;;;5017538;28;20186;-71
2021/09/26 12:30:19;;;;;;;14.82;11.35;;;;;;;;;;5024301;28;20198;-71
2021/09/26 12:32:58;;;;;;;12.73;11.43;;;;;;;;;;5019127;28;20194;-71
2021/09/26 12:35:41;;;;;;;12.95;11.65;;;;;;;;;;5023600;28;20225;-71
2021/09/26 12:38:13;;;;;;;13.95;11.43;;;;;;;;;;5018228;28;20193;-71
2021/09/26 12:40:49;;;;;;;12.15;10.95;;;;;;;;;;5026350;28;20209;-71
2021/09/26 12:43:14;;;;;;;13.85;11.70;;;;;;;;;;5017693;28;20196;-70
2021/09/26 12:45:43;;;;;;;14.50;12.50;;;;;;;;;;5026471;28;20555;-71
2021/09/26 12:48:11;;;;;;;14.38;12.40;;;;;;;;;;5023365;28;20929;-70
2021/09/26 12:50:43;;;;;;;16.42;11.55;;;;;;;;;;5018955;28;20181;-70
2021/09/26 12:53:14;;;;;;;14.40;11.90;;;;;;;;;;5023083;28;20178;-70
2021/09/26 12:55:40;;;;;;;14.75;12.52;;;;;;;;;;5015172;28;20244;-70
2021/09/26 12:58:06;;;;;;;15.35;12.93;;;;;;;;;;5026009;28;20220;-70
2021/09/26 13:00:40;;;;;;;15.77;12.05;;;;;;;;;;5017047;28;20305;-71
2021/09/26 13:03:16;;;;;;;15.52;12.52;;;;;;;;;;5025419;28;20229;-71
2021/09/26 13:05:58;;;;;;;19.42;12.85;;;;;;;;;;4672201;28;9999736;-73
2021/09/26 13:08:39;;;;;;;13.77;11.55;;;;;;;;;;5022148;28;20192;-71
2021/09/26 13:11:12;;;;;;;13.88;12.13;;;;;;;;;;5014395;28;20213;-70
2021/09/26 13:13:42;;;;;;;14.15;11.55;;;;;;;;;;5022665;28;20235;-71
2021/09/26 13:16:44;;;;;;;14.57;12.48;;;;;;;;;;5016604;28;20298;-72
2021/09/26 13:19:35;;;;;;;12.00;10.80;;;;;;;;;;5016874;28;20202;-71
2021/09/26 13:22:05;;;;;;;11.30;9.73;;;;;;;;;;5016732;28;20197;-72
2021/09/26 13:24:30;;;;;;;12.25;10.95;;;;;;;;;;5022076;28;20185;-71
2021/09/26 13:26:56;;;;;;;13.07;11.05;;;;;;;;;;5017175;28;20295;-71
2021/09/26 13:29:31;;;;;;;12.38;10.70;;;;;;;;;;5019661;28;20252;-71
2021/09/26 13:32:00;;;;;;;12.35;10.43;;;;;;;;;;5014955;28;20702;-71
2021/09/26 13:34:34;;;;;;;14.75;11.38;;;;;;;;;;5020669;28;21571;-71
2021/09/26 13:37:19;;;;;;;14.73;11.52;;;;;;;;;;5009241;28;20200;-72
2021/09/26 13:39:53;;;;;;;14.70;10.98;;;;;;;;;;5019068;28;20209;-71
2021/09/26 13:42:21;;;;;;;14.25;12.02;;;;;;;;;;5011250;28;20228;-72
2021/09/26 13:44:49;;;;;;;13.95;11.07;;;;;;;;;;5018155;28;20222;-72
2021/09/26 13:47:19;;;;;;;12.35;10.55;;;;;;;;;;5013633;28;20218;-71
2021/09/26 13:49:45;;;;;;;12.25;10.95;;;;;;;;;;5018418;28;20182;-72
2021/09/26 13:52:10;;;;;;;14.23;11.90;;;;;;;;;;5014473;28;20283;-72
2021/09/26 13:54:36;;;;;;;14.02;11.50;;;;;;;;;;5020722;28;20568;-71
2021/09/26 13:57:01;;;;;;;14.70;12.63;;;;;;;;;;5019496;28;20650;-72
2021/09/26 13:59:27;;;;;;;14.45;12.05;;;;;;;;;;5013609;28;20197;-71
2021/09/26 14:01:53;;;;;;;15.35;11.70;;;;;;;;;;5022374;28;20619;-72
2021/09/26 14:04:18;;;;;;;15.13;12.00;;;;;;;;;;5014710;28;20641;-71
2021/09/26 14:06:44;;;;;;;15.52;12.27;;;;;;;;;;5020953;28;20328;-74
2021/09/26 14:09:10;;;;;;;13.93;12.05;;;;;;;;;;5015352;28;20186;-73
2021/09/26 14:11:36;;;;;;;14.77;11.68;;;;;;;;;;5023190;28;20190;-72
2021/09/26 14:14:03;;;;;;;12.57;11.27;;;;;;;;;;5015039;28;20202;-72
2021/09/26 14:16:29;;;;;;;13.18;11.13;;;;;;;;;;5021001;28;20185;-72
2021/09/26 14:18:54;;;;;;;14.75;12.25;;;;;;;;;;5016298;28;20201;-71
2021/09/26 14:21:20;;;;;;;15.95;13.07;;;;;;;;;;5019367;28;20263;-71
2021/09/26 14:23:47;;;;;;;13.68;12.27;;;;;;;;;;5016114;28;20212;-72